Etusivu
METAR-TAF:

METAR-TAF

Lentoasemat :

Faa’an kansainvälinen lentoasema

Tahiti, Ranskan Polynesia

Leveyspiiri: 17-33S, Pituuspiiri: 149-37W, korkeus merenpinnasta: 2 m

Tämänhetkinen sää

Tämä raportti tehtiin 30 minuuttia sitten, kello 20.30 UTC
Tuuli 6 kn lounaasta
Lämpötila 28°C
Kosteus 66%
Ilmanpaine 1017 hPa
Näkyvyys 10 km tai enemmän
Muutamia pilviä 2300 ft:n korkeudessa

METAR: NTAA 202030Z 23006KT 9999 FEW023 28/21 Q1017 NOSIG

Aika: 11:00 (21:00 UTC)

Sääennuste

Tämä raportti tehtiin 4 tuntia ja 0 minuuttia sitten, kello 17.00 UTC
Ennuste voimassa 20. päivästä klo 18 UTC - 21. päivään klo 24 UTC
Tuuli 5 kn eri suunnista
Näkyvyys 10 km tai enemmän
Muutamia pilviä 2300 ft:n korkeudessa

TAF: NTAA 201700Z 2018/2124 VRB05KT 9999 FEW023

Säähavainnot ja -ennusteet yli 4000 lentoasemalta (METAR- ja TAF-raportit).

Käytössä olevat sääasemat on merkitty karttaan keltaisilla ja punaisilla pisteillä.

Aseta hiiri pisteen päälle nähdäksesi sääaseman nimen.

Klikkaa sitten nähdäksesi säähavainnot ja -ennusteet.

Kartan vaihtaminen: klikkaa mustalla rastilla varustettuja vihreitä pisteitä, niin voit zoomata sisään; viivalla varustettua vihreää pistettä, niin voit zoomata ulos tai vihreitä nuolia, niin pääset viereisille kartoille.


METAR-TAF: